sensor_id;sensor_type;location;lat;lon;timestamp;P1;durP1;ratioP1;P2;durP2;ratioP2
11222;SDS011;5668;52.012;8.724;2022-09-23T00:00:58;3.07;;;2.00;;
11222;SDS011;5668;52.012;8.724;2022-09-23T00:03:27;3.67;;;2.13;;
11222;SDS011;5668;52.012;8.724;2022-09-23T00:05:58;2.53;;;2.33;;
11222;SDS011;5668;52.012;8.724;2022-09-23T00:08:28;2.90;;;2.10;;
11222;SDS011;5668;52.012;8.724;2022-09-23T00:10:56;3.97;;;2.20;;
11222;SDS011;5668;52.012;8.724;2022-09-23T00:13:28;2.87;;;2.23;;
11222;SDS011;5668;52.012;8.724;2022-09-23T00:15:56;2.23;;;2.03;;
11222;SDS011;5668;52.012;8.724;2022-09-23T00:18:26;2.87;;;2.10;;
11222;SDS011;5668;52.012;8.724;2022-09-23T00:20:53;2.43;;;2.23;;
11222;SDS011;5668;52.012;8.724;2022-09-23T00:23:22;2.27;;;2.07;;
11222;SDS011;5668;52.012;8.724;2022-09-23T00:25:54;4.43;;;2.10;;
11222;SDS011;5668;52.012;8.724;2022-09-23T00:28:21;2.67;;;2.10;;
11222;SDS011;5668;52.012;8.724;2022-09-23T00:30:49;2.73;;;2.20;;
11222;SDS011;5668;52.012;8.724;2022-09-23T00:33:16;2.50;;;2.13;;
11222;SDS011;5668;52.012;8.724;2022-09-23T00:35:43;3.27;;;2.20;;
11222;SDS011;5668;52.012;8.724;2022-09-23T00:38:11;4.47;;;2.33;;
11222;SDS011;5668;52.012;8.724;2022-09-23T00:40:42;3.97;;;2.37;;
11222;SDS011;5668;52.012;8.724;2022-09-23T00:43:10;2.87;;;2.20;;
11222;SDS011;5668;52.012;8.724;2022-09-23T00:45:39;2.20;;;2.00;;
11222;SDS011;5668;52.012;8.724;2022-09-23T00:48:08;3.57;;;1.90;;
11222;SDS011;5668;52.012;8.724;2022-09-23T00:50:42;2.97;;;2.13;;
11222;SDS011;5668;52.012;8.724;2022-09-23T00:53:12;5.20;;;2.03;;
11222;SDS011;5668;52.012;8.724;2022-09-23T00:55:46;2.23;;;2.00;;
11222;SDS011;5668;52.012;8.724;2022-09-23T00:58:18;2.13;;;1.80;;
11222;SDS011;5668;52.012;8.724;2022-09-23T01:00:48;2.50;;;1.87;;
11222;SDS011;5668;52.012;8.724;2022-09-23T01:03:15;4.03;;;1.90;;
11222;SDS011;5668;52.012;8.724;2022-09-23T01:05:43;3.13;;;1.73;;
11222;SDS011;5668;52.012;8.724;2022-09-23T01:08:11;2.03;;;1.60;;
11222;SDS011;5668;52.012;8.724;2022-09-23T01:10:41;1.97;;;1.77;;
11222;SDS011;5668;52.012;8.724;2022-09-23T01:13:17;2.00;;;1.80;;
11222;SDS011;5668;52.012;8.724;2022-09-23T01:15:51;3.63;;;1.90;;
11222;SDS011;5668;52.012;8.724;2022-09-23T01:18:25;2.50;;;1.90;;
11222;SDS011;5668;52.012;8.724;2022-09-23T01:21:06;2.07;;;1.80;;
11222;SDS011;5668;52.012;8.724;2022-09-23T01:26:59;2.37;;;1.50;;
11222;SDS011;5668;52.012;8.724;2022-09-23T01:32:35;3.07;;;1.70;;
11222;SDS011;5668;52.012;8.724;2022-09-23T01:35:22;2.10;;;1.60;;
11222;SDS011;5668;52.012;8.724;2022-09-23T01:37:56;3.37;;;1.73;;
11222;SDS011;5668;52.012;8.724;2022-09-23T01:40:32;2.33;;;1.57;;
11222;SDS011;5668;52.012;8.724;2022-09-23T01:43:08;2.13;;;1.60;;
11222;SDS011;5668;52.012;8.724;2022-09-23T01:45:39;2.73;;;1.77;;
11222;SDS011;5668;52.012;8.724;2022-09-23T01:48:11;2.53;;;1.77;;
11222;SDS011;5668;52.012;8.724;2022-09-23T01:50:45;1.93;;;1.70;;
11222;SDS011;5668;52.012;8.724;2022-09-23T01:53:23;2.33;;;1.87;;
11222;SDS011;5668;52.012;8.724;2022-09-23T01:55:59;1.50;;;1.40;;
11222;SDS011;5668;52.012;8.724;2022-09-23T01:58:31;1.70;;;1.60;;
11222;SDS011;5668;52.012;8.724;2022-09-23T02:01:06;3.07;;;2.17;;
11222;SDS011;5668;52.012;8.724;2022-09-23T02:03:40;1.80;;;1.57;;
11222;SDS011;5668;52.012;8.724;2022-09-23T02:06:14;2.73;;;1.83;;
11222;SDS011;5668;52.012;8.724;2022-09-23T02:08:46;2.73;;;1.80;;
11222;SDS011;5668;52.012;8.724;2022-09-23T02:11:17;4.03;;;1.70;;
11222;SDS011;5668;52.012;8.724;2022-09-23T02:13:47;2.23;;;1.70;;
11222;SDS011;5668;52.012;8.724;2022-09-23T02:16:21;3.77;;;2.00;;
11222;SDS011;5668;52.012;8.724;2022-09-23T02:18:54;2.20;;;1.90;;
11222;SDS011;5668;52.012;8.724;2022-09-23T02:21:26;2.60;;;2.03;;
11222;SDS011;5668;52.012;8.724;2022-09-23T02:24:00;1.90;;;1.70;;
11222;SDS011;5668;52.012;8.724;2022-09-23T02:26:34;1.73;;;1.60;;
11222;SDS011;5668;52.012;8.724;2022-09-23T02:29:07;1.97;;;1.60;;
11222;SDS011;5668;52.012;8.724;2022-09-23T02:31:46;1.70;;;1.60;;
11222;SDS011;5668;52.012;8.724;2022-09-23T02:34:28;2.73;;;1.87;;
11222;SDS011;5668;52.012;8.724;2022-09-23T02:37:05;1.80;;;1.60;;
11222;SDS011;5668;52.012;8.724;2022-09-23T02:39:40;2.30;;;1.57;;
11222;SDS011;5668;52.012;8.724;2022-09-23T02:42:17;3.60;;;1.87;;
11222;SDS011;5668;52.012;8.724;2022-09-23T02:44:50;1.70;;;1.60;;
11222;SDS011;5668;52.012;8.724;2022-09-23T02:47:17;2.23;;;1.80;;
11222;SDS011;5668;52.012;8.724;2022-09-23T02:49:50;2.60;;;1.80;;
11222;SDS011;5668;52.012;8.724;2022-09-23T02:52:17;2.27;;;1.60;;
11222;SDS011;5668;52.012;8.724;2022-09-23T02:54:44;4.60;;;1.83;;
11222;SDS011;5668;52.012;8.724;2022-09-23T02:57:12;1.90;;;1.50;;
11222;SDS011;5668;52.012;8.724;2022-09-23T02:59:39;1.70;;;1.60;;
11222;SDS011;5668;52.012;8.724;2022-09-23T03:02:10;2.03;;;1.60;;
11222;SDS011;5668;52.012;8.724;2022-09-23T03:04:53;1.60;;;1.50;;
11222;SDS011;5668;52.012;8.724;2022-09-23T03:07:32;2.10;;;1.70;;
11222;SDS011;5668;52.012;8.724;2022-09-23T03:10:10;1.87;;;1.60;;
11222;SDS011;5668;52.012;8.724;2022-09-23T03:12:47;2.37;;;1.93;;
11222;SDS011;5668;52.012;8.724;2022-09-23T03:15:25;2.23;;;1.73;;
11222;SDS011;5668;52.012;8.724;2022-09-23T03:18:04;3.37;;;1.70;;
11222;SDS011;5668;52.012;8.724;2022-09-23T03:20:40;4.77;;;2.00;;
11222;SDS011;5668;52.012;8.724;2022-09-23T03:23:11;2.10;;;1.77;;
11222;SDS011;5668;52.012;8.724;2022-09-23T03:25:42;1.70;;;1.40;;
11222;SDS011;5668;52.012;8.724;2022-09-23T03:28:12;2.27;;;1.97;;
11222;SDS011;5668;52.012;8.724;2022-09-23T03:30:44;4.93;;;1.97;;
11222;SDS011;5668;52.012;8.724;2022-09-23T03:33:11;2.63;;;1.90;;
11222;SDS011;5668;52.012;8.724;2022-09-23T03:35:46;4.23;;;1.70;;
11222;SDS011;5668;52.012;8.724;2022-09-23T03:38:35;2.07;;;1.87;;
11222;SDS011;5668;52.012;8.724;2022-09-23T03:41:08;1.60;;;1.50;;
11222;SDS011;5668;52.012;8.724;2022-09-23T03:43:40;2.30;;;1.83;;
11222;SDS011;5668;52.012;8.724;2022-09-23T03:46:09;2.10;;;1.83;;
11222;SDS011;5668;52.012;8.724;2022-09-23T03:48:42;2.93;;;1.97;;
11222;SDS011;5668;52.012;8.724;2022-09-23T03:51:16;2.00;;;1.80;;
11222;SDS011;5668;52.012;8.724;2022-09-23T03:53:47;1.93;;;1.80;;
11222;SDS011;5668;52.012;8.724;2022-09-23T03:56:15;2.23;;;1.77;;
11222;SDS011;5668;52.012;8.724;2022-09-23T03:58:42;2.27;;;1.70;;
11222;SDS011;5668;52.012;8.724;2022-09-23T04:01:10;3.07;;;1.83;;
11222;SDS011;5668;52.012;8.724;2022-09-23T04:03:38;3.13;;;1.83;;
11222;SDS011;5668;52.012;8.724;2022-09-23T04:06:06;3.57;;;1.90;;
11222;SDS011;5668;52.012;8.724;2022-09-23T04:08:35;2.33;;;1.70;;
11222;SDS011;5668;52.012;8.724;2022-09-23T04:11:02;1.70;;;1.60;;
11222;SDS011;5668;52.012;8.724;2022-09-23T04:13:30;3.20;;;1.80;;
11222;SDS011;5668;52.012;8.724;2022-09-23T04:15:57;2.23;;;1.80;;
11222;SDS011;5668;52.012;8.724;2022-09-23T04:18:24;1.93;;;1.70;;
11222;SDS011;5668;52.012;8.724;2022-09-23T04:20:55;3.87;;;1.80;;
11222;SDS011;5668;52.012;8.724;2022-09-23T04:23:23;4.57;;;1.90;;
11222;SDS011;5668;52.012;8.724;2022-09-23T04:25:52;2.77;;;1.90;;
11222;SDS011;5668;52.012;8.724;2022-09-23T04:28:20;3.93;;;1.93;;
11222;SDS011;5668;52.012;8.724;2022-09-23T04:30:47;3.10;;;1.80;;
11222;SDS011;5668;52.012;8.724;2022-09-23T04:33:15;2.30;;;1.90;;
11222;SDS011;5668;52.012;8.724;2022-09-23T04:35:42;2.13;;;1.73;;
11222;SDS011;5668;52.012;8.724;2022-09-23T04:38:10;1.70;;;1.60;;
11222;SDS011;5668;52.012;8.724;2022-09-23T04:40:37;2.53;;;1.60;;
11222;SDS011;5668;52.012;8.724;2022-09-23T04:43:06;2.40;;;1.80;;
11222;SDS011;5668;52.012;8.724;2022-09-23T04:45:33;2.73;;;1.90;;
11222;SDS011;5668;52.012;8.724;2022-09-23T04:48:01;4.47;;;2.00;;
11222;SDS011;5668;52.012;8.724;2022-09-23T04:50:28;2.30;;;2.10;;
11222;SDS011;5668;52.012;8.724;2022-09-23T04:52:57;2.93;;;2.00;;
11222;SDS011;5668;52.012;8.724;2022-09-23T04:55:25;2.73;;;2.33;;
11222;SDS011;5668;52.012;8.724;2022-09-23T04:57:52;2.10;;;1.90;;
11222;SDS011;5668;52.012;8.724;2022-09-23T05:00:21;2.83;;;2.10;;
11222;SDS011;5668;52.012;8.724;2022-09-23T05:02:48;2.00;;;1.80;;
11222;SDS011;5668;52.012;8.724;2022-09-23T05:05:16;2.30;;;2.10;;
11222;SDS011;5668;52.012;8.724;2022-09-23T05:07:45;2.27;;;1.97;;
11222;SDS011;5668;52.012;8.724;2022-09-23T05:10:13;4.10;;;1.90;;
11222;SDS011;5668;52.012;8.724;2022-09-23T05:12:41;2.13;;;1.93;;
11222;SDS011;5668;52.012;8.724;2022-09-23T05:15:08;1.93;;;1.73;;
11222;SDS011;5668;52.012;8.724;2022-09-23T05:17:41;1.73;;;1.63;;
11222;SDS011;5668;52.012;8.724;2022-09-23T05:20:09;2.13;;;1.90;;
11222;SDS011;5668;52.012;8.724;2022-09-23T05:22:38;3.00;;;2.10;;
11222;SDS011;5668;52.012;8.724;2022-09-23T05:25:05;2.30;;;1.87;;
11222;SDS011;5668;52.012;8.724;2022-09-23T05:27:33;2.00;;;1.80;;
11222;SDS011;5668;52.012;8.724;2022-09-23T05:30:00;2.10;;;1.70;;
11222;SDS011;5668;52.012;8.724;2022-09-23T05:32:27;2.07;;;1.87;;
11222;SDS011;5668;52.012;8.724;2022-09-23T05:34:57;2.50;;;2.10;;
11222;SDS011;5668;52.012;8.724;2022-09-23T05:37:24;1.97;;;1.73;;
11222;SDS011;5668;52.012;8.724;2022-09-23T05:39:51;2.23;;;2.03;;
11222;SDS011;5668;52.012;8.724;2022-09-23T05:42:18;1.90;;;1.80;;
11222;SDS011;5668;52.012;8.724;2022-09-23T05:44:45;4.53;;;2.10;;
11222;SDS011;5668;52.012;8.724;2022-09-23T05:47:12;2.20;;;2.00;;
11222;SDS011;5668;52.012;8.724;2022-09-23T05:49:40;3.63;;;2.30;;
11222;SDS011;5668;52.012;8.724;2022-09-23T05:52:08;1.90;;;1.80;;
11222;SDS011;5668;52.012;8.724;2022-09-23T05:54:35;2.87;;;2.00;;
11222;SDS011;5668;52.012;8.724;2022-09-23T05:57:02;2.10;;;1.90;;
11222;SDS011;5668;52.012;8.724;2022-09-23T05:59:30;2.20;;;1.90;;
11222;SDS011;5668;52.012;8.724;2022-09-23T06:01:57;2.50;;;2.10;;
11222;SDS011;5668;52.012;8.724;2022-09-23T06:04:25;2.03;;;1.77;;
11222;SDS011;5668;52.012;8.724;2022-09-23T06:06:52;2.80;;;1.83;;
11222;SDS011;5668;52.012;8.724;2022-09-23T06:09:20;3.77;;;1.90;;
11222;SDS011;5668;52.012;8.724;2022-09-23T06:11:48;3.57;;;2.10;;
11222;SDS011;5668;52.012;8.724;2022-09-23T06:14:15;3.00;;;2.03;;
11222;SDS011;5668;52.012;8.724;2022-09-23T06:16:43;2.67;;;1.77;;
11222;SDS011;5668;52.012;8.724;2022-09-23T06:19:10;1.90;;;1.70;;
11222;SDS011;5668;52.012;8.724;2022-09-23T06:21:37;3.17;;;2.00;;
11222;SDS011;5668;52.012;8.724;2022-09-23T06:24:05;2.10;;;1.90;;
11222;SDS011;5668;52.012;8.724;2022-09-23T06:26:35;2.67;;;1.90;;
11222;SDS011;5668;52.012;8.724;2022-09-23T06:29:03;2.13;;;1.97;;
11222;SDS011;5668;52.012;8.724;2022-09-23T06:31:34;2.33;;;2.10;;
11222;SDS011;5668;52.012;8.724;2022-09-23T06:34:01;2.40;;;2.17;;
11222;SDS011;5668;52.012;8.724;2022-09-23T06:36:29;2.30;;;2.10;;
11222;SDS011;5668;52.012;8.724;2022-09-23T06:38:56;2.13;;;2.00;;
11222;SDS011;5668;52.012;8.724;2022-09-23T06:41:23;2.50;;;2.13;;
11222;SDS011;5668;52.012;8.724;2022-09-23T06:43:51;2.07;;;1.87;;
11222;SDS011;5668;52.012;8.724;2022-09-23T06:46:19;2.67;;;2.47;;
11222;SDS011;5668;52.012;8.724;2022-09-23T06:48:46;3.00;;;2.50;;
11222;SDS011;5668;52.012;8.724;2022-09-23T06:51:15;3.40;;;2.30;;
11222;SDS011;5668;52.012;8.724;2022-09-23T06:53:44;3.07;;;2.57;;
11222;SDS011;5668;52.012;8.724;2022-09-23T06:56:12;3.53;;;2.30;;
11222;SDS011;5668;52.012;8.724;2022-09-23T06:58:42;5.80;;;2.70;;
11222;SDS011;5668;52.012;8.724;2022-09-23T07:01:12;2.83;;;2.53;;
11222;SDS011;5668;52.012;8.724;2022-09-23T07:03:41;3.70;;;2.90;;
11222;SDS011;5668;52.012;8.724;2022-09-23T07:06:08;3.13;;;2.83;;
11222;SDS011;5668;52.012;8.724;2022-09-23T07:08:35;4.40;;;3.17;;
11222;SDS011;5668;52.012;8.724;2022-09-23T07:11:03;3.03;;;2.63;;
11222;SDS011;5668;52.012;8.724;2022-09-23T07:13:37;5.87;;;3.70;;
11222;SDS011;5668;52.012;8.724;2022-09-23T07:16:05;4.47;;;3.30;;
11222;SDS011;5668;52.012;8.724;2022-09-23T07:18:34;3.30;;;3.00;;
11222;SDS011;5668;52.012;8.724;2022-09-23T07:21:05;3.83;;;3.40;;
11222;SDS011;5668;52.012;8.724;2022-09-23T07:23:34;4.17;;;3.40;;
11222;SDS011;5668;52.012;8.724;2022-09-23T07:26:03;3.67;;;3.00;;
11222;SDS011;5668;52.012;8.724;2022-09-23T07:28:31;3.67;;;3.30;;
11222;SDS011;5668;52.012;8.724;2022-09-23T07:31:04;3.40;;;3.00;;
11222;SDS011;5668;52.012;8.724;2022-09-23T07:33:35;5.37;;;3.67;;
11222;SDS011;5668;52.012;8.724;2022-09-23T07:36:04;5.77;;;3.37;;
11222;SDS011;5668;52.012;8.724;2022-09-23T07:38:33;3.67;;;3.30;;
11222;SDS011;5668;52.012;8.724;2022-09-23T07:41:01;5.33;;;3.30;;
11222;SDS011;5668;52.012;8.724;2022-09-23T07:43:29;4.20;;;3.30;;
11222;SDS011;5668;52.012;8.724;2022-09-23T07:45:57;4.47;;;3.33;;
11222;SDS011;5668;52.012;8.724;2022-09-23T07:48:26;4.33;;;3.13;;
11222;SDS011;5668;52.012;8.724;2022-09-23T07:50:55;5.00;;;3.40;;
11222;SDS011;5668;52.012;8.724;2022-09-23T07:53:23;5.60;;;3.20;;
11222;SDS011;5668;52.012;8.724;2022-09-23T07:55:51;6.03;;;3.20;;
11222;SDS011;5668;52.012;8.724;2022-09-23T07:58:19;6.40;;;3.73;;
11222;SDS011;5668;52.012;8.724;2022-09-23T08:00:46;3.23;;;2.93;;
11222;SDS011;5668;52.012;8.724;2022-09-23T08:03:17;4.00;;;3.43;;
11222;SDS011;5668;52.012;8.724;2022-09-23T08:05:45;3.80;;;3.00;;
11222;SDS011;5668;52.012;8.724;2022-09-23T08:08:13;5.00;;;3.17;;
11222;SDS011;5668;52.012;8.724;2022-09-23T08:10:41;4.17;;;3.07;;
11222;SDS011;5668;52.012;8.724;2022-09-23T08:13:08;5.37;;;2.90;;
11222;SDS011;5668;52.012;8.724;2022-09-23T08:15:35;4.60;;;3.20;;
11222;SDS011;5668;52.012;8.724;2022-09-23T08:18:03;3.97;;;3.30;;
11222;SDS011;5668;52.012;8.724;2022-09-23T08:20:30;5.57;;;3.30;;
11222;SDS011;5668;52.012;8.724;2022-09-23T08:23:09;3.40;;;3.10;;
11222;SDS011;5668;52.012;8.724;2022-09-23T08:25:38;2.77;;;2.40;;
11222;SDS011;5668;52.012;8.724;2022-09-23T08:28:05;4.10;;;2.80;;
11222;SDS011;5668;52.012;8.724;2022-09-23T08:30:33;4.57;;;2.83;;
11222;SDS011;5668;52.012;8.724;2022-09-23T08:33:00;6.77;;;2.90;;
11222;SDS011;5668;52.012;8.724;2022-09-23T08:35:28;4.80;;;2.60;;
11222;SDS011;5668;52.012;8.724;2022-09-23T08:37:55;4.10;;;2.90;;
11222;SDS011;5668;52.012;8.724;2022-09-23T08:40:22;3.07;;;2.70;;
11222;SDS011;5668;52.012;8.724;2022-09-23T08:42:51;4.10;;;2.73;;
11222;SDS011;5668;52.012;8.724;2022-09-23T08:45:19;2.87;;;2.50;;
11222;SDS011;5668;52.012;8.724;2022-09-23T08:47:51;2.50;;;2.30;;
11222;SDS011;5668;52.012;8.724;2022-09-23T08:50:22;3.13;;;2.70;;
11222;SDS011;5668;52.012;8.724;2022-09-23T08:52:54;3.73;;;2.40;;
11222;SDS011;5668;52.012;8.724;2022-09-23T08:55:26;2.73;;;2.47;;
11222;SDS011;5668;52.012;8.724;2022-09-23T08:58:03;2.93;;;2.20;;
11222;SDS011;5668;52.012;8.724;2022-09-23T09:00:47;2.53;;;2.30;;
11222;SDS011;5668;52.012;8.724;2022-09-23T09:03:27;6.30;;;2.87;;
11222;SDS011;5668;52.012;8.724;2022-09-23T09:06:00;3.20;;;2.50;;
11222;SDS011;5668;52.012;8.724;2022-09-23T09:08:30;3.00;;;2.50;;
11222;SDS011;5668;52.012;8.724;2022-09-23T09:11:00;2.67;;;2.20;;
11222;SDS011;5668;52.012;8.724;2022-09-23T09:13:31;2.70;;;2.00;;
11222;SDS011;5668;52.012;8.724;2022-09-23T09:16:05;3.03;;;2.20;;
11222;SDS011;5668;52.012;8.724;2022-09-23T09:18:44;3.43;;;2.20;;
11222;SDS011;5668;52.012;8.724;2022-09-23T09:21:17;3.27;;;2.33;;
11222;SDS011;5668;52.012;8.724;2022-09-23T09:23:51;2.20;;;2.00;;
11222;SDS011;5668;52.012;8.724;2022-09-23T09:26:21;5.65;;;2.42;;
11222;SDS011;5668;52.012;8.724;2022-09-23T09:28:53;3.50;;;2.13;;
11222;SDS011;5668;52.012;8.724;2022-09-23T09:31:27;4.45;;;1.90;;
11222;SDS011;5668;52.012;8.724;2022-09-23T09:33:59;2.30;;;1.83;;
11222;SDS011;5668;52.012;8.724;2022-09-23T09:36:35;2.50;;;2.10;;
11222;SDS011;5668;52.012;8.724;2022-09-23T09:39:09;2.65;;;1.77;;
11222;SDS011;5668;52.012;8.724;2022-09-23T09:41:39;2.65;;;1.95;;
11222;SDS011;5668;52.012;8.724;2022-09-23T09:44:16;3.08;;;1.90;;
11222;SDS011;5668;52.012;8.724;2022-09-23T09:46:50;3.80;;;2.00;;
11222;SDS011;5668;52.012;8.724;2022-09-23T09:49:28;2.10;;;1.90;;
11222;SDS011;5668;52.012;8.724;2022-09-23T09:52:09;1.95;;;1.75;;
11222;SDS011;5668;52.012;8.724;2022-09-23T09:54:58;2.08;;;1.70;;
11222;SDS011;5668;52.012;8.724;2022-09-23T09:57:49;1.92;;;1.73;;
11222;SDS011;5668;52.012;8.724;2022-09-23T10:00:43;3.40;;;1.48;;
11222;SDS011;5668;52.012;8.724;2022-09-23T10:03:23;2.75;;;1.40;;
11222;SDS011;5668;52.012;8.724;2022-09-23T10:05:57;4.13;;;1.60;;
11222;SDS011;5668;52.012;8.724;2022-09-23T10:08:25;2.65;;;1.35;;
11222;SDS011;5668;52.012;8.724;2022-09-23T10:10:59;2.00;;;1.40;;
11222;SDS011;5668;52.012;8.724;2022-09-23T10:13:28;1.30;;;1.20;;
11222;SDS011;5668;52.012;8.724;2022-09-23T10:15:57;4.07;;;1.60;;
11222;SDS011;5668;52.012;8.724;2022-09-23T10:18:29;3.17;;;1.30;;
11222;SDS011;5668;52.012;8.724;2022-09-23T10:21:00;2.80;;;1.33;;
11222;SDS011;5668;52.012;8.724;2022-09-23T10:23:32;1.92;;;1.40;;
11222;SDS011;5668;52.012;8.724;2022-09-23T10:26:04;1.55;;;1.30;;
11222;SDS011;5668;52.012;8.724;2022-09-23T10:28:39;1.38;;;1.27;;
11222;SDS011;5668;52.012;8.724;2022-09-23T10:31:12;1.40;;;1.10;;
11222;SDS011;5668;52.012;8.724;2022-09-23T10:33:45;1.38;;;1.20;;
11222;SDS011;5668;52.012;8.724;2022-09-23T10:36:15;1.33;;;1.15;;
11222;SDS011;5668;52.012;8.724;2022-09-23T10:38:42;2.40;;;1.63;;
11222;SDS011;5668;52.012;8.724;2022-09-23T10:41:12;1.30;;;1.20;;
11222;SDS011;5668;52.012;8.724;2022-09-23T10:44:10;4.13;;;1.30;;
11222;SDS011;5668;52.012;8.724;2022-09-23T10:47:08;1.75;;;1.20;;
11222;SDS011;5668;52.012;8.724;2022-09-23T10:49:57;1.45;;;1.10;;
11222;SDS011;5668;52.012;8.724;2022-09-23T10:52:39;1.88;;;1.50;;
11222;SDS011;5668;52.012;8.724;2022-09-23T10:55:22;1.80;;;1.50;;
11222;SDS011;5668;52.012;8.724;2022-09-23T10:58:09;1.77;;;1.30;;
11222;SDS011;5668;52.012;8.724;2022-09-23T11:00:54;1.70;;;1.38;;
11222;SDS011;5668;52.012;8.724;2022-09-23T11:03:37;3.17;;;1.45;;
11222;SDS011;5668;52.012;8.724;2022-09-23T11:06:21;1.92;;;1.33;;
11222;SDS011;5668;52.012;8.724;2022-09-23T11:09:05;2.30;;;1.38;;
11222;SDS011;5668;52.012;8.724;2022-09-23T11:11:45;2.00;;;1.30;;
11222;SDS011;5668;52.012;8.724;2022-09-23T11:14:24;1.50;;;1.20;;
11222;SDS011;5668;52.012;8.724;2022-09-23T11:17:15;2.65;;;1.23;;
11222;SDS011;5668;52.012;8.724;2022-09-23T11:19:59;2.25;;;1.30;;
11222;SDS011;5668;52.012;8.724;2022-09-23T11:22:49;3.25;;;1.30;;
11222;SDS011;5668;52.012;8.724;2022-09-23T11:25:37;3.00;;;1.50;;
11222;SDS011;5668;52.012;8.724;2022-09-23T11:28:19;1.85;;;1.38;;
11222;SDS011;5668;52.012;8.724;2022-09-23T11:31:12;1.67;;;1.25;;
11222;SDS011;5668;52.012;8.724;2022-09-23T11:33:53;2.10;;;1.38;;
11222;SDS011;5668;52.012;8.724;2022-09-23T11:36:30;1.50;;;1.05;;
11222;SDS011;5668;52.012;8.724;2022-09-23T11:39:01;1.80;;;1.40;;
11222;SDS011;5668;52.012;8.724;2022-09-23T11:41:35;1.88;;;1.42;;
11222;SDS011;5668;52.012;8.724;2022-09-23T11:44:05;1.60;;;1.20;;
11222;SDS011;5668;52.012;8.724;2022-09-23T11:46:41;1.40;;;1.20;;
11222;SDS011;5668;52.012;8.724;2022-09-23T11:49:12;2.05;;;1.30;;
11222;SDS011;5668;52.012;8.724;2022-09-23T11:51:47;1.80;;;1.10;;
11222;SDS011;5668;52.012;8.724;2022-09-23T11:54:27;1.25;;;1.00;;
11222;SDS011;5668;52.012;8.724;2022-09-23T11:57:00;2.22;;;1.50;;
11222;SDS011;5668;52.012;8.724;2022-09-23T11:59:33;1.50;;;1.30;;
11222;SDS011;5668;52.012;8.724;2022-09-23T12:02:08;1.65;;;1.33;;
11222;SDS011;5668;52.012;8.724;2022-09-23T12:04:45;2.08;;;1.20;;
11222;SDS011;5668;52.012;8.724;2022-09-23T12:07:23;2.15;;;1.45;;
11222;SDS011;5668;52.012;8.724;2022-09-23T12:09:56;2.92;;;1.20;;
11222;SDS011;5668;52.012;8.724;2022-09-23T12:12:28;2.45;;;1.48;;
11222;SDS011;5668;52.012;8.724;2022-09-23T12:15:04;1.63;;;1.30;;
11222;SDS011;5668;52.012;8.724;2022-09-23T12:23:41;1.67;;;1.33;;
11222;SDS011;5668;52.012;8.724;2022-09-23T12:26:21;1.83;;;1.40;;
11222;SDS011;5668;52.012;8.724;2022-09-23T12:28:50;2.42;;;1.30;;
11222;SDS011;5668;52.012;8.724;2022-09-23T12:31:24;4.43;;;1.30;;
11222;SDS011;5668;52.012;8.724;2022-09-23T12:33:54;1.88;;;1.15;;
11222;SDS011;5668;52.012;8.724;2022-09-23T12:36:24;2.17;;;1.13;;
11222;SDS011;5668;52.012;8.724;2022-09-23T12:39:00;1.50;;;1.10;;
11222;SDS011;5668;52.012;8.724;2022-09-23T12:41:31;1.55;;;1.17;;
11222;SDS011;5668;52.012;8.724;2022-09-23T12:44:12;1.13;;;1.00;;
11222;SDS011;5668;52.012;8.724;2022-09-23T12:49:53;1.83;;;1.00;;
11222;SDS011;5668;52.012;8.724;2022-09-23T12:52:23;1.40;;;1.10;;
11222;SDS011;5668;52.012;8.724;2022-09-23T12:54:55;1.10;;;1.00;;
11222;SDS011;5668;52.012;8.724;2022-09-23T12:57:39;1.98;;;1.15;;
11222;SDS011;5668;52.012;8.724;2022-09-23T13:00:13;2.25;;;1.67;;
11222;SDS011;5668;52.012;8.724;2022-09-23T13:02:52;2.72;;;1.50;;
11222;SDS011;5668;52.012;8.724;2022-09-23T13:05:44;2.05;;;1.50;;
11222;SDS011;5668;52.012;8.724;2022-09-23T13:08:34;2.17;;;1.60;;
11222;SDS011;5668;52.012;8.724;2022-09-23T13:11:06;1.25;;;1.15;;
11222;SDS011;5668;52.012;8.724;2022-09-23T13:13:43;1.15;;;0.90;;
11222;SDS011;5668;52.012;8.724;2022-09-23T13:16:18;2.33;;;1.13;;
11222;SDS011;5668;52.012;8.724;2022-09-23T13:18:51;1.88;;;1.10;;
11222;SDS011;5668;52.012;8.724;2022-09-23T13:24:23;1.17;;;1.08;;
11222;SDS011;5668;52.012;8.724;2022-09-23T13:27:12;1.00;;;0.90;;
11222;SDS011;5668;52.012;8.724;2022-09-23T13:29:48;1.50;;;1.15;;
11222;SDS011;5668;52.012;8.724;2022-09-23T13:32:20;2.05;;;1.10;;
11222;SDS011;5668;52.012;8.724;2022-09-23T13:34:53;1.50;;;1.05;;
11222;SDS011;5668;52.012;8.724;2022-09-23T13:37:24;1.67;;;0.98;;
11222;SDS011;5668;52.012;8.724;2022-09-23T13:40:05;1.58;;;1.00;;
11222;SDS011;5668;52.012;8.724;2022-09-23T13:42:51;1.55;;;1.00;;
11222;SDS011;5668;52.012;8.724;2022-09-23T13:45:22;2.45;;;1.20;;
11222;SDS011;5668;52.012;8.724;2022-09-23T13:47:51;1.23;;;1.10;;
11222;SDS011;5668;52.012;8.724;2022-09-23T13:50:21;1.80;;;1.15;;
11222;SDS011;5668;52.012;8.724;2022-09-23T13:52:50;1.40;;;1.20;;
11222;SDS011;5668;52.012;8.724;2022-09-23T13:55:22;2.63;;;1.48;;
11222;SDS011;5668;52.012;8.724;2022-09-23T13:57:57;1.92;;;0.98;;
11222;SDS011;5668;52.012;8.724;2022-09-23T14:00:29;1.42;;;1.10;;
11222;SDS011;5668;52.012;8.724;2022-09-23T14:03:00;1.90;;;1.20;;
11222;SDS011;5668;52.012;8.724;2022-09-23T14:05:30;1.75;;;1.33;;
11222;SDS011;5668;52.012;8.724;2022-09-23T14:08:00;2.05;;;1.40;;
11222;SDS011;5668;52.012;8.724;2022-09-23T14:10:28;2.42;;;1.40;;
11222;SDS011;5668;52.012;8.724;2022-09-23T14:12:58;1.63;;;1.27;;
11222;SDS011;5668;52.012;8.724;2022-09-23T14:15:26;1.55;;;1.20;;
11222;SDS011;5668;52.012;8.724;2022-09-23T14:17:56;1.42;;;1.30;;
11222;SDS011;5668;52.012;8.724;2022-09-23T14:20:27;1.92;;;1.20;;
11222;SDS011;5668;52.012;8.724;2022-09-23T14:23:04;1.60;;;1.13;;
11222;SDS011;5668;52.012;8.724;2022-09-23T14:25:34;1.55;;;1.20;;
11222;SDS011;5668;52.012;8.724;2022-09-23T14:28:04;2.17;;;1.40;;
11222;SDS011;5668;52.012;8.724;2022-09-23T14:30:31;1.58;;;1.38;;
11222;SDS011;5668;52.012;8.724;2022-09-23T14:32:58;2.22;;;1.33;;
11222;SDS011;5668;52.012;8.724;2022-09-23T14:35:26;1.33;;;1.23;;
11222;SDS011;5668;52.012;8.724;2022-09-23T14:38:05;3.08;;;1.60;;
11222;SDS011;5668;52.012;8.724;2022-09-23T14:40:50;3.30;;;1.25;;
11222;SDS011;5668;52.012;8.724;2022-09-23T14:43:40;1.85;;;1.30;;
11222;SDS011;5668;52.012;8.724;2022-09-23T14:46:15;1.85;;;1.40;;
11222;SDS011;5668;52.012;8.724;2022-09-23T14:48:50;1.52;;;1.25;;
11222;SDS011;5668;52.012;8.724;2022-09-23T14:51:20;1.95;;;1.55;;
11222;SDS011;5668;52.012;8.724;2022-09-23T14:53:54;1.48;;;1.30;;
11222;SDS011;5668;52.012;8.724;2022-09-23T14:56:41;1.88;;;1.20;;
11222;SDS011;5668;52.012;8.724;2022-09-23T14:59:21;3.03;;;1.50;;
11222;SDS011;5668;52.012;8.724;2022-09-23T15:01:51;1.83;;;1.38;;
11222;SDS011;5668;52.012;8.724;2022-09-23T15:04:26;2.08;;;1.20;;
11222;SDS011;5668;52.012;8.724;2022-09-23T15:06:57;2.67;;;1.42;;
11222;SDS011;5668;52.012;8.724;2022-09-23T15:09:29;3.10;;;1.20;;
11222;SDS011;5668;52.012;8.724;2022-09-23T15:11:59;1.67;;;1.20;;
11222;SDS011;5668;52.012;8.724;2022-09-23T15:14:30;1.42;;;1.20;;
11222;SDS011;5668;52.012;8.724;2022-09-23T15:17:02;2.47;;;1.30;;
11222;SDS011;5668;52.012;8.724;2022-09-23T15:19:32;1.77;;;1.00;;
11222;SDS011;5668;52.012;8.724;2022-09-23T15:22:01;2.00;;;1.35;;
11222;SDS011;5668;52.012;8.724;2022-09-23T15:24:36;2.72;;;1.15;;
11222;SDS011;5668;52.012;8.724;2022-09-23T15:27:10;1.77;;;1.20;;
11222;SDS011;5668;52.012;8.724;2022-09-23T15:30:03;1.40;;;1.30;;
11222;SDS011;5668;52.012;8.724;2022-09-23T15:32:40;2.08;;;1.20;;
11222;SDS011;5668;52.012;8.724;2022-09-23T15:35:09;2.38;;;0.90;;
11222;SDS011;5668;52.012;8.724;2022-09-23T15:37:39;2.72;;;1.13;;
11222;SDS011;5668;52.012;8.724;2022-09-23T15:40:12;2.83;;;1.30;;
11222;SDS011;5668;52.012;8.724;2022-09-23T15:42:46;1.48;;;1.00;;
11222;SDS011;5668;52.012;8.724;2022-09-23T15:45:16;1.88;;;1.20;;
11222;SDS011;5668;52.012;8.724;2022-09-23T15:47:46;1.40;;;1.00;;
11222;SDS011;5668;52.012;8.724;2022-09-23T15:50:16;1.52;;;1.10;;